Terminal Aerodrome Forecast
Issued by NWS Hastings, NE

Current Version | Previous Version | Text Only | Print | Product List | Glossary On
Versions: 1 2 3 4 5 6 7 8 9 10 11 12 13 14 15
000
FTUS43 KGID 260809 AAA
TAFGRI
TAF AMD
KGRI 260809Z 2608/2706 VRB15G25KT P6SM -TSRA SCT035 SCT080CB
     FM261200 14009KT P6SM FEW005 BKN100
     FM261600 08008KT P6SM SCT015 BKN080
     FM261700 04008KT P6SM VCTS SCT040CB
     FM270200 02012KT P6SM BKN015=

USA.gov is the U.S. government's official web portal to all federal, state and local government web resources and services.